Terminal Aerodrome Forecast
Issued by NWS

Home | Current Version | Previous Version | Graphics & Text | Print | Product List | Glossary On
Versions: 1 2 3 4 5 6 7 8 9 10 11 12 13 14 15 16 17 18 19
925
FTUS43 KFGF 172335 AAA
TAFBJI
TAF AMD
KBJI 172335Z 1800/1824 19005KT P6SM SCT040
      TEMPO 1802/1806 3SM BR BKN010
     FM180600 19009KT 3/4SM BR BKN008
     FM181000 20010KT P6SM OVC040
     FM181200 21009KT P6SM OVC025
     FM181400 21008KT P6SM OVC070
     FM182100 24010KT 2SM -SN OVC015=

USA.gov is the U.S. government's official web portal to all federal, state and local government web resources and services.